Time;durP1;ratioP1;P1;durP2;ratioP2;P2;SDS_P1;SDS_P2;PMS_P1;PMS_P2;Temp;Humidity;BMP_temperature;BMP_pressure;BME280_temperature;BME280_humidity;BME280_pressure;Samples;Min_cycle;Max_cycle;Signal;HPM_P1;HPM_P2
2024/02/19 00:02:31;;;;;;;5.15;1.27;;;;;;;17.45;59.38;102374.03;10455178;28;20275;-58
2024/02/19 00:07:31;;;;;;;5.32;1.75;;;;;;;17.48;58.90;102381.56;10457371;28;20071;-59
2024/02/19 00:12:31;;;;;;;3.42;2.08;;;;;;;17.46;58.92;102378.31;10455916;28;20127;-58
2024/02/19 00:17:32;;;;;;;4.70;1.60;;;;;;;17.47;59.17;102390.66;10456933;28;20029;-58
2024/02/19 00:22:32;;;;;;;3.88;1.52;;;;;;;17.47;59.35;102392.53;10456227;28;20460;-59
2024/02/19 00:27:33;;;;;;;3.55;1.10;;;;;;;17.45;58.76;102392.78;10456234;28;20118;-59
2024/02/19 00:32:33;;;;;;;3.10;1.58;;;;;;;17.49;59.03;102407.31;10455894;28;20032;-58
2024/02/19 00:37:34;;;;;;;4.17;1.50;;;;;;;17.47;58.66;102401.41;10455822;28;20021;-58
2024/02/19 00:42:34;;;;;;;4.00;1.20;;;;;;;17.47;59.60;102408.63;10455302;28;20402;-59
2024/02/19 00:47:36;;;;;;;2.13;1.30;;;;;;;17.47;58.23;102414.81;10454269;28;20025;-58
2024/02/19 00:52:38;;;;;;;3.35;1.30;;;;;;;17.46;59.50;102418.53;10455178;28;20382;-59
2024/02/19 00:57:38;;;;;;;2.85;1.35;;;;;;;17.47;58.24;102425.53;10454699;28;20028;-58
2024/02/19 01:02:40;;;;;;;2.90;1.10;;;;;;;17.46;58.30;102415.06;10454536;28;20035;-59
2024/02/19 01:07:41;;;;;;;2.85;1.10;;;;;;;17.46;58.50;102407.81;10454343;28;20303;-59
2024/02/19 01:12:41;;;;;;;2.83;1.30;;;;;;;17.48;57.66;102404.88;10454601;28;20116;-59
2024/02/19 01:17:43;;;;;;;4.88;1.17;;;;;;;17.51;58.25;102417.78;10454099;28;20616;-59
2024/02/19 01:22:44;;;;;;;2.60;1.23;;;;;;;17.47;58.71;102414.81;10454125;28;20132;-58
2024/02/19 01:27:44;;;;;;;3.10;1.03;;;;;;;17.48;57.68;102418.28;10453431;28;20140;-59
2024/02/19 01:32:44;;;;;;;3.93;1.47;;;;;;;17.49;58.26;102422.59;10453724;28;20295;-58
2024/02/19 01:37:46;;;;;;;4.93;1.80;;;;;;;17.46;58.27;102431.16;10453250;28;20267;-59
2024/02/19 01:42:46;;;;;;;2.55;1.10;;;;;;;17.48;59.12;102423.66;10453654;28;20264;-59
2024/02/19 01:47:47;;;;;;;3.30;1.52;;;;;;;17.45;58.27;102445.63;10453032;28;20029;-59
2024/02/19 01:52:48;;;;;;;3.77;1.33;;;;;;;17.43;57.85;102429.78;10452811;28;20032;-58
2024/02/19 01:57:49;;;;;;;3.80;1.30;;;;;;;17.44;58.14;102444.00;10452261;28;20287;-58
2024/02/19 02:02:50;;;;;;;4.25;1.50;;;;;;;17.42;58.92;102454.16;10452856;28;20033;-59
2024/02/19 02:07:51;;;;;;;3.83;1.38;;;;;;;17.41;59.00;102426.53;10451953;28;20029;-58
2024/02/19 02:12:51;;;;;;;2.83;1.08;;;;;;;17.41;58.24;102417.69;10452118;28;20140;-59
2024/02/19 02:17:52;;;;;;;3.30;1.40;;;;;;;17.40;57.99;102427.56;10450781;28;20031;-59
2024/02/19 02:22:52;;;;;;;2.73;1.43;;;;;;;17.41;58.31;102425.72;10451969;28;21018;-59
2024/02/19 02:27:53;;;;;;;4.65;1.65;;;;;;;17.37;58.91;102428.06;10451445;28;20021;-57
2024/02/19 02:32:55;;;;;;;3.93;1.10;;;;;;;17.39;58.36;102431.31;10451392;28;20028;-58
2024/02/19 02:37:55;;;;;;;3.47;0.90;;;;;;;17.38;58.75;102436.91;10450924;28;20672;-58
2024/02/19 02:42:56;;;;;;;4.93;1.67;;;;;;;17.38;58.63;102442.28;10451454;28;20099;-59
2024/02/19 02:47:57;;;;;;;3.28;1.25;;;;;;;17.39;57.45;102433.16;10450546;28;20623;-58
2024/02/19 02:52:57;;;;;;;5.50;1.40;;;;;;;17.37;58.49;102422.69;10450750;28;20029;-59
2024/02/19 02:57:57;;;;;;;3.80;1.20;;;;;;;17.36;57.42;102437.16;10450133;28;20029;-58
2024/02/19 03:02:58;;;;;;;3.17;1.08;;;;;;;17.35;58.14;102427.50;10450477;28;20276;-59
2024/02/19 03:07:58;;;;;;;5.70;2.03;;;;;;;17.36;58.08;102431.00;10448968;28;20429;-59
2024/02/19 03:12:58;;;;;;;2.07;0.70;;;;;;;17.37;58.91;102446.81;10449870;28;20292;-59
2024/02/19 03:17:59;;;;;;;3.87;2.07;;;;;;;17.36;57.90;102439.03;10449864;28;21025;-58
2024/02/19 03:22:59;;;;;;;3.23;1.10;;;;;;;17.36;58.84;102450.56;10449904;28;20021;-59
2024/02/19 03:28:00;;;;;;;2.70;2.08;;;;;;;17.40;57.71;102448.19;10454312;28;20746;-58
2024/02/19 03:33:01;;;;;;;2.53;0.90;;;;;;;17.40;57.86;102445.53;10458334;28;20029;-59
2024/02/19 03:38:01;;;;;;;2.77;1.40;;;;;;;17.40;58.90;102448.19;10458335;28;20024;-58
2024/02/19 03:43:01;;;;;;;2.90;1.00;;;;;;;17.40;58.72;102440.16;10457950;28;20271;-59
2024/02/19 03:48:02;;;;;;;6.53;1.30;;;;;;;17.39;57.73;102449.25;10457355;28;20286;-58
2024/02/19 03:53:02;;;;;;;3.00;1.20;;;;;;;17.38;57.74;102444.97;10457561;28;20378;-58
2024/02/19 03:58:02;;;;;;;3.10;1.20;;;;;;;17.39;57.57;102444.72;10457491;28;20666;-58
2024/02/19 04:03:03;;;;;;;3.38;1.50;;;;;;;17.38;57.65;102451.13;10457367;28;20094;-59
2024/02/19 04:08:04;;;;;;;3.55;0.98;;;;;;;17.38;58.99;102455.69;10456668;28;20032;-58
2024/02/19 04:13:04;;;;;;;1.73;0.90;;;;;;;17.36;57.97;102458.63;10456632;28;20040;-59
2024/02/19 04:18:04;;;;;;;3.40;1.00;;;;;;;17.36;57.34;102455.94;10456412;28;20037;-59
2024/02/19 04:23:05;;;;;;;3.13;1.10;;;;;;;17.38;57.81;102458.38;10456576;28;20622;-59
2024/02/19 04:28:05;;;;;;;3.73;1.30;;;;;;;17.35;58.95;102453.50;10456131;28;20056;-58
2024/02/19 04:33:05;;;;;;;3.17;0.90;;;;;;;17.35;58.74;102450.81;10454810;28;20767;-59
2024/02/19 04:38:06;;;;;;;2.33;1.67;;;;;;;17.35;57.49;102453.50;10454964;28;20256;-59
2024/02/19 04:43:06;;;;;;;4.43;1.17;;;;;;;17.35;57.73;102443.59;10455808;28;20271;-58
2024/02/19 04:48:07;;;;;;;2.73;1.07;;;;;;;17.35;58.50;102440.91;10455034;28;20279;-59
2024/02/19 04:53:07;;;;;;;3.60;1.52;;;;;;;17.36;58.35;102434.47;10453949;28;20323;-58
2024/02/19 04:58:07;;;;;;;5.80;1.30;;;;;;;17.34;58.08;102433.91;10453035;28;20040;-59
2024/02/19 05:03:08;;;;;;;2.97;0.90;;;;;;;17.34;58.03;102439.28;10454816;28;20620;-58
2024/02/19 05:08:09;;;;;;;3.05;1.52;;;;;;;17.36;57.15;102445.22;10454456;28;20276;-58
2024/02/19 05:13:09;;;;;;;2.03;1.02;;;;;;;17.35;57.48;102442.78;10454304;28;20055;-59
2024/02/19 05:18:09;;;;;;;1.38;0.80;;;;;;;17.37;58.30;102433.41;10453024;28;20033;-58
2024/02/19 05:23:10;;;;;;;3.30;1.05;;;;;;;17.35;57.17;102432.84;10454062;28;20805;-56
2024/02/19 05:28:10;;;;;;;4.33;1.30;;;;;;;17.39;57.02;102438.53;10453754;28;20460;-59
2024/02/19 05:33:12;;;;;;;4.13;1.23;;;;;;;17.38;58.33;102431.56;10450809;28;20295;-59
2024/02/19 05:38:12;;;;;;;4.47;1.17;;;;;;;17.39;57.19;102442.03;10447952;28;20678;-58
2024/02/19 05:43:13;;;;;;;2.03;0.88;;;;;;;17.35;58.16;102429.38;10424409;28;20032;-59
2024/02/19 05:48:13;;;;;;;2.88;1.20;;;;;;;17.37;58.07;102432.59;10450362;28;20033;-59
2024/02/19 05:53:14;;;;;;;3.60;0.83;;;;;;;17.37;58.00;102433.41;10449821;28;20021;-59
2024/02/19 05:58:14;;;;;;;4.67;1.03;;;;;;;17.42;58.62;102438.88;10450545;28;20483;-59
2024/02/19 06:03:15;;;;;;;2.70;0.90;;;;;;;17.43;58.06;102435.13;10450932;28;20271;-59
2024/02/19 06:08:16;;;;;;;2.93;1.20;;;;;;;17.46;58.43;102437.31;10450401;28;20021;-59
2024/02/19 06:13:16;;;;;;;2.50;0.80;;;;;;;17.44;58.13;102435.94;10448706;28;20790;-59
2024/02/19 06:18:17;;;;;;;2.85;0.95;;;;;;;17.41;58.47;102431.91;10449672;28;20511;-59
2024/02/19 06:23:17;;;;;;;2.58;1.08;;;;;;;17.41;58.66;102429.22;10450777;28;20462;-59
2024/02/19 06:28:17;;;;;;;2.87;0.83;;;;;;;17.37;58.27;102433.41;10448977;28;20021;-59
2024/02/19 06:33:17;;;;;;;4.77;0.80;;;;;;;17.32;58.02;102441.41;10448921;28;20825;-59
2024/02/19 06:38:18;;;;;;;3.50;1.10;;;;;;;17.32;59.52;102438.72;10447626;28;20039;-58
2024/02/19 06:43:19;;;;;;;3.45;0.93;;;;;;;17.34;59.03;102436.59;10445413;28;20024;-61
2024/02/19 06:48:19;;;;;;;7.05;1.10;;;;;;;17.45;58.58;102430.34;10445647;28;20565;-60
2024/02/19 06:53:20;;;;;;;9.57;1.67;;;;;;;17.44;58.76;102425.22;10449489;28;20082;-61
2024/02/19 06:58:20;;;;;;;11.17;1.57;;;;;;;17.54;59.86;102434.22;10449245;28;20275;-61
2024/02/19 07:03:20;;;;;;;6.90;1.83;;;;;;;17.59;60.40;102438.84;10450036;28;20381;-61
2024/02/19 07:08:21;;;;;;;3.20;1.58;;;;;;;17.63;59.37;102431.09;10449808;28;20325;-60
2024/02/19 07:13:21;;;;;;;13.48;1.75;;;;;;;17.57;59.26;102434.78;10449716;28;20068;-60
2024/02/19 07:18:24;;;;;;;10.77;1.50;;;;;;;17.57;58.99;102432.09;10448350;28;20045;-61
2024/02/19 07:23:25;;;;;;;8.85;1.95;;;;;;;17.49;58.56;102433.31;10432272;28;20021;-61
2024/02/19 07:28:26;;;;;;;12.03;2.33;;;;;;;17.42;59.25;102449.59;10449643;28;20022;-59
2024/02/19 07:33:27;;;;;;;7.63;1.48;;;;;;;17.44;58.97;102438.63;10436216;28;20338;-61
2024/02/19 07:38:27;;;;;;;12.30;2.67;;;;;;;17.41;59.84;102441.81;10445663;28;20108;-59
2024/02/19 07:43:28;;;;;;;9.10;1.50;;;;;;;17.40;59.31;102446.34;10447367;28;20411;-59
2024/02/19 07:48:30;;;;;;;5.80;1.38;;;;;;;17.37;58.27;102438.78;10449266;28;20376;-59
2024/02/19 07:53:30;;;;;;;7.32;1.73;;;;;;;17.33;58.69;102432.28;10448570;28;20033;-59
2024/02/19 07:58:31;;;;;;;3.43;1.33;;;;;;;17.34;58.83;102428.56;10449566;28;20437;-59
2024/02/19 08:03:32;;;;;;;3.97;1.70;;;;;;;17.34;58.22;102428.56;10449219;28;20662;-59
2024/02/19 08:08:33;;;;;;;5.40;1.10;;;;;;;17.37;58.45;102437.97;10447343;28;20025;-58
2024/02/19 08:13:34;;;;;;;5.75;1.25;;;;;;;17.34;58.43;102417.03;10450582;28;20694;-59
2024/02/19 08:18:34;;;;;;;5.63;1.50;;;;;;;17.39;58.96;102423.25;10456161;28;20350;-59
2024/02/19 08:23:34;;;;;;;3.67;1.45;;;;;;;17.39;58.16;102430.50;10454778;28;20444;-59
2024/02/19 08:28:35;;;;;;;3.57;1.40;;;;;;;17.35;58.38;102438.22;10455442;28;20098;-58
2024/02/19 08:33:35;;;;;;;1.50;0.70;;;;;;;17.35;58.45;102442.78;10455190;28;20357;-59
2024/02/19 08:38:35;;;;;;;4.13;1.30;;;;;;;17.34;58.08;102447.31;10446575;28;20275;-59
2024/02/19 08:43:36;;;;;;;3.03;1.30;;;;;;;17.34;58.49;102443.84;10455195;28;20279;-59
2024/02/19 08:48:36;;;;;;;4.53;1.17;;;;;;;17.34;59.23;102447.31;10454904;28;20274;-58
2024/02/19 08:53:36;;;;;;;4.07;1.20;;;;;;;17.32;59.51;102454.00;10453871;28;20030;-59
2024/02/19 08:58:37;;;;;;;4.32;1.73;;;;;;;17.29;59.42;102457.16;10454749;28;20279;-58
2024/02/19 09:03:38;;;;;;;3.38;1.35;;;;;;;17.20;58.82;102448.72;10453988;28;20016;-59
2024/02/19 09:08:38;;;;;;;3.25;1.27;;;;;;;17.18;58.17;102448.97;10454554;28;20029;-59
2024/02/19 09:13:38;;;;;;;3.63;1.57;;;;;;;17.18;59.28;102448.97;10453769;28;20404;-59
2024/02/19 09:18:39;;;;;;;1.87;1.00;;;;;;;17.16;59.77;102458.28;10449146;28;20284;-60
2024/02/19 09:23:39;;;;;;;3.03;0.97;;;;;;;17.17;58.11;102441.97;10462445;28;20453;-59
2024/02/19 09:28:39;;;;;;;3.40;0.90;;;;;;;17.19;58.65;102445.22;10457772;28;20314;-59
2024/02/19 09:33:40;;;;;;;6.38;1.85;;;;;;;17.22;59.03;102451.97;10447667;28;20041;-59
2024/02/19 09:38:40;;;;;;;2.72;1.63;;;;;;;17.20;59.44;102451.41;10440741;28;20025;-59
2024/02/19 09:43:40;;;;;;;5.60;1.17;;;;;;;17.23;59.21;102451.72;10448839;28;20035;-58
2024/02/19 09:48:45;;;;;;;6.03;2.13;;;;;;;17.24;59.20;102452.53;10451853;28;20613;-58
2024/02/19 09:53:50;;;;;;;3.33;1.15;;;;;;;17.24;58.17;102447.97;10447766;28;20291;-59
2024/02/19 09:58:50;;;;;;;4.97;1.42;;;;;;;17.25;58.88;102441.56;10450985;28;20021;-59
2024/02/19 10:03:51;;;;;;;3.15;1.00;;;;;;;17.26;57.62;102437.00;10446982;28;20128;-59
2024/02/19 10:08:52;;;;;;;6.70;2.15;;;;;;;17.22;59.34;102439.38;10445517;28;20060;-59
2024/02/19 10:13:53;;;;;;;3.10;0.90;;;;;;;17.21;58.02;102447.66;10450865;28;20056;-59
2024/02/19 10:19:05;;;;;;;3.95;1.08;;;;;;;17.18;59.28;102440.91;10451926;28;20492;-58
2024/02/19 10:24:06;;;;;;;3.33;1.05;;;;;;;17.18;59.16;102440.91;10444943;28;20051;-59
2024/02/19 10:29:07;;;;;;;2.50;0.90;;;;;;;17.17;58.87;102431.25;10442652;28;20040;-59
2024/02/19 10:34:13;;;;;;;3.78;1.33;;;;;;;17.17;59.46;102431.25;10450948;28;20032;-59
2024/02/19 10:39:13;;;;;;;3.80;1.23;;;;;;;17.17;57.96;102417.84;10450683;28;20048;-58
2024/02/19 10:44:16;;;;;;;3.47;1.80;;;;;;;17.20;58.25;102419.22;10450703;28;20468;-59
2024/02/19 10:49:19;;;;;;;2.92;0.90;;;;;;;17.20;58.93;102421.91;10451218;28;20271;-58
2024/02/19 10:54:19;;;;;;;3.00;1.40;;;;;;;17.19;58.43;102417.59;10448562;28;20112;-59
2024/02/19 10:59:20;;;;;;;4.68;1.30;;;;;;;17.19;59.45;102407.69;10450021;28;20398;-59
2024/02/19 11:04:23;;;;;;;4.40;1.10;;;;;;;17.20;58.22;102408.50;10450140;28;20021;-59
2024/02/19 11:09:27;;;;;;;3.95;1.38;;;;;;;17.16;59.30;102393.94;10449307;28;20053;-58
2024/02/19 11:14:34;;;;;;;5.07;1.50;;;;;;;17.21;58.34;102384.13;10447800;28;20044;-58
2024/02/19 11:19:38;;;;;;;2.97;1.33;;;;;;;17.24;57.63;102380.13;10448368;28;20051;-59
2024/02/19 11:24:39;;;;;;;3.45;0.95;;;;;;;17.29;58.63;102376.75;10447712;28;20040;-59
2024/02/19 11:29:40;;;;;;;2.53;1.20;;;;;;;17.28;58.73;102373.22;10449489;28;20033;-58
2024/02/19 11:34:40;;;;;;;3.37;1.17;;;;;;;17.25;58.13;102371.84;10447698;28;20029;-59
2024/02/19 11:39:42;;;;;;;3.33;1.13;;;;;;;17.23;57.86;102368.63;10449655;28;20812;-59
2024/02/19 11:44:45;;;;;;;3.15;0.98;;;;;;;17.19;57.63;102370.16;10448259;28;20282;-58
2024/02/19 11:49:47;;;;;;;3.83;1.40;;;;;;;17.20;57.94;102360.25;10444724;28;20021;-58
2024/02/19 11:54:53;;;;;;;3.67;1.25;;;;;;;17.20;58.12;102362.94;10455369;28;20115;-58
2024/02/19 11:59:54;;;;;;;3.20;1.35;;;;;;;17.20;58.54;102352.22;10457298;28;20066;-59
2024/02/19 12:04:57;;;;;;;3.70;1.08;;;;;;;17.19;58.31;102345.22;10455224;28;20025;-59
2024/02/19 12:09:57;;;;;;;2.60;1.10;;;;;;;17.18;58.71;102346.28;10455980;28;20036;-59
2024/02/19 12:14:59;;;;;;;4.13;1.48;;;;;;;17.27;57.69;102342.13;10452463;28;20031;-59
2024/02/19 12:19:59;;;;;;;2.95;1.00;;;;;;;17.21;57.79;102338.56;10455967;28;20631;-59
2024/02/19 12:25:00;;;;;;;2.77;1.10;;;;;;;17.32;58.58;102333.34;10454752;28;20025;-58
2024/02/19 12:30:05;;;;;;;4.65;1.63;;;;;;;17.40;58.04;102311.44;10455811;28;20323;-59
2024/02/19 12:35:06;;;;;;;3.75;1.08;;;;;;;17.34;57.58;102302.53;10430508;28;20032;-59
2024/02/19 12:40:07;;;;;;;4.75;1.58;;;;;;;17.34;58.14;102286.47;10451647;28;20380;-59
2024/02/19 12:45:08;;;;;;;3.42;1.20;;;;;;;17.31;57.60;102291.50;10452953;28;20017;-59
2024/02/19 12:50:09;;;;;;;5.60;1.50;;;;;;;17.30;59.17;102297.94;10454230;28;20025;-58
2024/02/19 12:55:11;;;;;;;10.82;1.58;;;;;;;17.25;58.24;102296.78;10453651;28;20021;-59
2024/02/19 13:00:12;;;;;;;1.85;0.85;;;;;;;17.21;58.67;102287.63;10453361;28;20087;-59
2024/02/19 13:05:12;;;;;;;2.92;1.27;;;;;;;17.10;59.70;102288.56;10450923;28;20091;-60
2024/02/19 13:10:13;;;;;;;5.77;2.00;;;;;;;17.16;58.16;102295.59;10439060;28;20033;-60
2024/02/19 13:15:14;;;;;;;3.67;1.33;;;;;;;17.20;59.09;102279.84;10450930;28;20305;-59
2024/02/19 13:20:15;;;;;;;4.53;1.50;;;;;;;17.25;58.08;102286.06;10452296;28;20475;-59
2024/02/19 13:25:15;;;;;;;6.43;1.70;;;;;;;17.30;57.94;102271.94;10452357;28;20024;-59
2024/02/19 13:30:17;;;;;;;5.82;2.38;;;;;;;17.33;57.91;102263.38;10452390;28;20295;-59
2024/02/19 13:35:18;;;;;;;3.42;1.75;;;;;;;17.29;57.61;102264.97;10453434;28;20028;-59
2024/02/19 13:40:18;;;;;;;2.78;1.60;;;;;;;17.25;58.41;102261.13;10453370;28;20025;-59
2024/02/19 13:45:23;;;;;;;2.67;1.38;;;;;;;17.28;58.57;102260.63;10451666;28;20039;-59
2024/02/19 13:50:23;;;;;;;4.60;1.63;;;;;;;17.27;58.55;102263.56;10451491;28;20021;-60
2024/02/19 13:55:24;;;;;;;4.55;1.50;;;;;;;17.27;57.40;102258.19;10450093;28;20035;-59
2024/02/19 14:00:24;;;;;;;5.60;2.20;;;;;;;17.23;57.56;102260.56;10450032;28;20028;-58
2024/02/19 14:05:28;;;;;;;4.37;1.73;;;;;;;17.22;57.73;102259.75;10447768;28;20025;-59
2024/02/19 14:10:28;;;;;;;3.15;1.80;;;;;;;17.25;58.59;102256.59;10450238;28;20361;-59
2024/02/19 14:15:29;;;;;;;2.53;1.50;;;;;;;17.29;58.53;102248.06;10451101;28;20419;-59
2024/02/19 14:20:29;;;;;;;4.25;1.50;;;;;;;17.29;56.92;102245.38;10451883;28;20032;-60
2024/02/19 14:25:32;;;;;;;3.00;1.60;;;;;;;17.27;58.05;102242.91;10450243;28;20024;-59
2024/02/19 14:30:34;;;;;;;4.20;1.63;;;;;;;17.27;57.99;102242.91;10451498;28;20295;-59
2024/02/19 14:35:34;;;;;;;3.10;1.73;;;;;;;17.27;57.13;102245.59;10447493;28;20036;-59
2024/02/19 14:40:36;;;;;;;4.90;1.70;;;;;;;17.24;56.93;102256.84;10451027;28;20047;-59
2024/02/19 14:45:36;;;;;;;2.47;1.52;;;;;;;17.26;57.36;102254.72;10450450;28;20064;-59
2024/02/19 14:50:37;;;;;;;3.30;1.33;;;;;;;17.22;58.18;102259.75;10449939;28;20025;-60
2024/02/19 14:55:37;;;;;;;3.75;1.48;;;;;;;17.20;57.81;102248.47;10446471;28;20029;-59
2024/02/19 15:00:38;;;;;;;2.87;1.60;;;;;;;17.24;57.48;102260.31;10447396;28;20017;-59
2024/02/19 15:05:39;;;;;;;4.15;1.83;;;;;;;17.31;56.66;102262.03;10436449;28;20298;-59
2024/02/19 15:10:39;;;;;;;3.22;1.73;;;;;;;17.21;57.25;102251.97;10443561;28;20733;-59
2024/02/19 15:15:39;;;;;;;4.10;1.70;;;;;;;17.22;57.37;102250.91;10449835;28;20048;-59
2024/02/19 15:20:42;;;;;;;4.70;1.88;;;;;;;17.28;57.55;102247.22;10449691;28;20853;-60
2024/02/19 15:25:43;;;;;;;2.83;1.73;;;;;;;17.28;57.54;102246.41;10449203;28;20025;-59
2024/02/19 15:30:43;;;;;;;3.37;1.70;;;;;;;17.26;58.14;102241.31;10449435;28;20360;-59
2024/02/19 15:35:43;;;;;;;3.30;1.40;;;;;;;17.22;57.75;102241.00;10449347;28;20362;-59
2024/02/19 15:40:44;;;;;;;3.35;1.48;;;;;;;17.21;58.17;102247.44;10449863;28;20311;-59
2024/02/19 15:45:44;;;;;;;4.20;1.60;;;;;;;17.19;57.64;102232.66;10447782;28;20059;-59
2024/02/19 15:50:44;;;;;;;1.85;1.42;;;;;;;17.23;57.22;102233.78;10449354;28;20291;-59
2024/02/19 15:55:45;;;;;;;3.17;1.43;;;;;;;17.28;57.32;102235.69;10451885;28;20128;-59
2024/02/19 16:00:46;;;;;;;3.10;1.58;;;;;;;17.30;58.05;102234.41;10436934;28;20268;-59
2024/02/19 16:05:47;;;;;;;2.30;1.63;;;;;;;17.31;57.98;102233.34;10448827;28;20453;-59
2024/02/19 16:10:48;;;;;;;2.65;1.42;;;;;;;17.32;57.75;102232.28;10447267;28;20125;-59
2024/02/19 16:15:48;;;;;;;5.15;1.40;;;;;;;17.33;58.09;102241.13;10448301;28;20039;-59
2024/02/19 16:20:52;;;;;;;3.13;1.30;;;;;;;17.33;58.12;102249.97;10448952;28;20389;-59
2024/02/19 16:25:52;;;;;;;2.80;1.83;;;;;;;17.29;57.92;102243.50;10446106;28;20747;-59
2024/02/19 16:30:52;;;;;;;2.60;1.23;;;;;;;17.30;57.31;102244.31;10448528;28;20033;-59
2024/02/19 16:35:53;;;;;;;2.93;1.60;;;;;;;17.31;58.11;102245.94;10451665;28;20037;-59
2024/02/19 16:40:54;;;;;;;2.90;1.20;;;;;;;17.28;57.75;102244.53;10455151;28;20263;-59
2024/02/19 16:45:54;;;;;;;2.33;1.33;;;;;;;17.34;57.34;102246.25;10454902;28;20717;-58
2024/02/19 16:50:57;;;;;;;2.37;1.60;;;;;;;17.49;56.89;102246.41;10453779;28;20497;-59
2024/02/19 16:55:58;;;;;;;2.83;0.85;;;;;;;17.62;58.63;102249.75;10447088;28;20782;-61
2024/02/19 17:00:58;;;;;;;15.65;11.57;;;;;;;17.73;58.48;102256.91;10452785;28;20020;-64
2024/02/19 17:05:58;;;;;;;62.00;50.95;;;;;;;17.85;58.29;102256.75;10441770;28;20032;-62
2024/02/19 17:10:59;;;;;;;34.65;24.95;;;;;;;17.77;57.97;102253.47;10451773;28;20052;-61
2024/02/19 17:15:59;;;;;;;25.83;18.40;;;;;;;17.81;57.63;102256.47;10451765;28;20024;-61
2024/02/19 17:21:03;;;;;;;17.73;14.43;;;;;;;17.74;58.72;102266.56;10453845;28;20028;-62
2024/02/19 17:26:06;;;;;;;17.20;12.30;;;;;;;17.69;58.88;102269.19;10450899;28;20677;-61
2024/02/19 17:31:08;;;;;;;15.30;9.93;;;;;;;17.71;57.38;102280.50;10449708;28;20126;-62
2024/02/19 17:36:08;;;;;;;13.65;9.20;;;;;;;17.58;57.87;102292.38;10450240;28;20108;-58
2024/02/19 17:41:08;;;;;;;13.35;8.52;;;;;;;17.53;57.17;102298.50;10450451;28;20116;-58
2024/02/19 17:46:14;;;;;;;12.18;7.32;;;;;;;17.48;58.67;102311.84;10449575;28;20029;-58
2024/02/19 17:51:19;;;;;;;12.00;7.47;;;;;;;17.42;59.12;102309.34;10450007;28;20237;-59
2024/02/19 17:56:19;;;;;;;12.00;7.68;;;;;;;17.37;58.76;102320.81;10449681;28;20535;-58
2024/02/19 18:01:22;;;;;;;9.55;6.55;;;;;;;17.33;58.53;102318.88;10449811;28;20024;-57
2024/02/19 18:06:22;;;;;;;14.05;7.80;;;;;;;17.30;58.59;102330.09;10447909;28;20029;-59
2024/02/19 18:11:22;;;;;;;12.00;5.87;;;;;;;17.23;57.98;102330.28;10448913;28;20041;-58
2024/02/19 18:16:23;;;;;;;8.43;6.30;;;;;;;17.20;58.60;102336.94;10448777;28;20651;-58
2024/02/19 18:21:24;;;;;;;11.00;5.65;;;;;;;17.15;58.15;102347.56;10448981;28;20043;-58
2024/02/19 18:26:26;;;;;;;11.25;6.28;;;;;;;17.15;58.02;102347.56;10448083;28;20361;-58
2024/02/19 18:31:26;;;;;;;9.20;5.53;;;;;;;17.14;58.83;102355.88;10447272;28;20025;-58
2024/02/19 18:36:27;;;;;;;10.82;6.13;;;;;;;17.11;59.20;102359.84;10448013;28;20529;-58
2024/02/19 18:41:27;;;;;;;9.07;4.90;;;;;;;17.07;58.40;102356.06;10447916;28;20036;-58
2024/02/19 18:46:28;;;;;;;11.20;6.70;;;;;;;17.03;58.99;102362.94;10447623;28;20036;-58
2024/02/19 18:51:28;;;;;;;7.05;5.25;;;;;;;17.02;57.62;102372.03;10446778;28;20064;-58
2024/02/19 18:56:29;;;;;;;9.10;5.68;;;;;;;16.99;59.38;102383.25;10447278;28;20020;-58
2024/02/19 19:01:29;;;;;;;7.30;5.05;;;;;;;16.96;58.21;102381.06;10447137;28;20029;-58
2024/02/19 19:06:30;;;;;;;10.50;5.57;;;;;;;16.93;59.00;102390.41;10447820;28;20484;-58
2024/02/19 19:11:34;;;;;;;7.60;4.55;;;;;;;16.92;59.08;102388.75;10446225;28;20033;-58
2024/02/19 19:16:35;;;;;;;9.95;4.53;;;;;;;16.90;58.12;102393.56;10446961;28;20040;-59
2024/02/19 19:21:36;;;;;;;9.63;4.40;;;;;;;16.87;57.77;102404.75;10447107;28;20370;-58
2024/02/19 19:26:37;;;;;;;8.23;4.72;;;;;;;16.85;58.58;102414.91;10446741;28;20283;-58
2024/02/19 19:31:37;;;;;;;8.13;4.93;;;;;;;16.83;58.27;102417.03;10446071;28;20025;-58
2024/02/19 19:36:37;;;;;;;9.10;4.40;;;;;;;16.81;58.48;102426.34;10453031;28;20283;-58
2024/02/19 19:41:38;;;;;;;7.23;5.40;;;;;;;16.77;59.43;102420.66;10447951;28;20263;-58
2024/02/19 19:46:39;;;;;;;12.93;5.72;;;;;;;16.88;60.33;102427.81;10453528;28;20275;-59
2024/02/19 19:51:39;;;;;;;9.25;4.38;;;;;;;16.93;60.17;102427.91;10461456;28;20091;-59
2024/02/19 19:56:40;;;;;;;10.80;5.10;;;;;;;16.90;60.42;102431.06;10448334;28;20108;-59
2024/02/19 20:01:40;;;;;;;7.55;4.63;;;;;;;16.88;59.90;102421.66;10448112;28;20275;-61
2024/02/19 20:06:41;;;;;;;6.65;4.13;;;;;;;16.85;59.61;102419.47;10448436;28;20037;-59
2024/02/19 20:11:41;;;;;;;7.43;4.80;;;;;;;16.81;58.64;102431.69;10445208;28;20404;-59
2024/02/19 20:16:42;;;;;;;10.38;4.88;;;;;;;16.78;59.77;102433.00;10451506;28;20035;-60
2024/02/19 20:21:42;;;;;;;6.37;3.60;;;;;;;16.76;58.74;102439.66;10447417;28;20028;-59
2024/02/19 20:26:42;;;;;;;6.93;4.23;;;;;;;16.72;58.68;102438.53;10456776;28;20283;-59
2024/02/19 20:31:43;;;;;;;7.97;4.22;;;;;;;16.71;58.42;102440.38;10456074;28;20036;-59
2024/02/19 20:36:43;;;;;;;7.05;3.95;;;;;;;16.70;58.56;102437.94;10456418;28;20036;-59
2024/02/19 20:41:44;;;;;;;6.93;3.40;;;;;;;16.67;58.85;102457.94;10454438;28;20541;-59
2024/02/19 20:46:45;;;;;;;8.40;4.00;;;;;;;16.66;59.01;102467.03;10455958;28;20279;-59
2024/02/19 20:51:46;;;;;;;7.90;3.80;;;;;;;16.64;58.52;102471.81;10455284;28;20013;-59
2024/02/19 20:56:46;;;;;;;5.38;3.45;;;;;;;16.62;58.79;102474.75;10455768;28;20037;-58
2024/02/19 21:01:46;;;;;;;5.27;3.43;;;;;;;16.60;59.24;102476.03;10454609;28;20098;-59
2024/02/19 21:06:47;;;;;;;7.20;3.00;;;;;;;16.60;59.00;102479.53;10455241;28;20829;-58
2024/02/19 21:11:47;;;;;;;7.72;3.60;;;;;;;16.59;59.99;102474.41;10454140;28;20378;-58
2024/02/19 21:16:48;;;;;;;8.98;3.97;;;;;;;16.56;59.65;102473.00;10454794;28;20625;-59
2024/02/19 21:21:49;;;;;;;9.35;5.07;;;;;;;16.55;58.76;102479.41;10453691;28;20415;-59
2024/02/19 21:26:50;;;;;;;6.13;3.07;;;;;;;16.53;59.67;102481.53;10453362;28;20021;-58
2024/02/19 21:31:50;;;;;;;5.68;2.80;;;;;;;16.52;59.70;102479.91;10451911;28;20779;-59
2024/02/19 21:36:52;;;;;;;7.15;3.30;;;;;;;16.50;58.74;102492.72;10452581;28;20025;-59
2024/02/19 21:41:53;;;;;;;7.15;3.47;;;;;;;16.50;59.49;102502.63;10451961;28;20087;-59
2024/02/19 21:46:53;;;;;;;7.70;3.17;;;;;;;16.48;58.14;102494.81;10451469;28;20083;-58
2024/02/19 21:51:54;;;;;;;7.22;3.35;;;;;;;16.46;59.01;102493.44;10452649;28;20750;-58
2024/02/19 21:56:54;;;;;;;4.97;2.95;;;;;;;16.44;58.95;102504.34;10453173;28;20024;-58
2024/02/19 22:01:54;;;;;;;8.27;3.30;;;;;;;16.41;58.33;102502.16;10452719;28;20016;-58
2024/02/19 22:06:55;;;;;;;4.73;2.80;;;;;;;16.42;57.93;102506.47;10452989;28;20272;-58
2024/02/19 22:11:55;;;;;;;6.17;3.13;;;;;;;16.41;58.68;102504.03;10451924;28;20296;-58
2024/02/19 22:16:55;;;;;;;6.70;3.50;;;;;;;16.38;58.27;102500.78;10450159;28;20495;-59
2024/02/19 22:21:56;;;;;;;7.00;3.47;;;;;;;16.37;58.07;102499.16;10449037;28;20271;-59
2024/02/19 22:26:56;;;;;;;6.05;3.75;;;;;;;16.36;57.58;102507.44;10450704;28;20366;-59
2024/02/19 22:31:56;;;;;;;5.70;2.95;;;;;;;16.35;58.72;102500.44;10449160;28;20029;-59
2024/02/19 22:36:59;;;;;;;4.20;2.45;;;;;;;16.34;57.89;102513.03;10450398;28;20480;-58
2024/02/19 22:42:01;;;;;;;6.65;4.05;;;;;;;16.32;59.40;102520.44;10451180;28;20097;-58
2024/02/19 22:47:01;;;;;;;5.75;3.60;;;;;;;16.31;58.12;102526.84;10451311;28;20056;-58
2024/02/19 22:52:02;;;;;;;5.60;3.57;;;;;;;16.29;58.29;102526.28;10449529;28;20108;-58
2024/02/19 22:57:03;;;;;;;8.02;3.15;;;;;;;16.27;58.67;102531.06;10451022;28;20329;-58
2024/02/19 23:02:04;;;;;;;6.20;3.10;;;;;;;16.26;57.93;102529.44;10450413;28;20071;-58